Time;durP1;ratioP1;P1;durP2;ratioP2;P2;SDS_P1;SDS_P2;PMS_P1;PMS_P2;Temp;Humidity;BMP_temperature;BMP_pressure;BME280_temperature;BME280_humidity;BME280_pressure;Samples;Min_cycle;Max_cycle;Signal;HPM_P1;HPM_P2
2022/07/22 00:01:34;;;;;;;10.02;2.95;;;;;;;;;;5053614;28;20445;-58
2022/07/22 00:04:02;;;;;;;13.93;2.80;;;;;;;;;;5069612;28;20234;-58
2022/07/22 00:06:28;;;;;;;10.95;2.70;;;;;;;;;;5066087;28;20206;-59
2022/07/22 00:08:54;;;;;;;12.35;2.85;;;;;;;;;;5071759;28;20218;-59
2022/07/22 00:11:20;;;;;;;10.55;2.92;;;;;;;;;;5069768;28;20186;-58
2022/07/22 00:13:47;;;;;;;8.60;3.28;;;;;;;;;;5049169;28;20183;-58
2022/07/22 00:16:13;;;;;;;9.80;2.58;;;;;;;;;;5055686;28;20889;-59
2022/07/22 00:18:39;;;;;;;8.57;2.90;;;;;;;;;;5063956;28;20179;-58
2022/07/22 00:21:06;;;;;;;10.32;3.00;;;;;;;;;;5056430;28;20181;-59
2022/07/22 00:23:32;;;;;;;9.77;2.97;;;;;;;;;;5073056;28;20209;-58
2022/07/22 00:25:58;;;;;;;14.57;3.38;;;;;;;;;;5072576;28;20183;-58
2022/07/22 00:28:24;;;;;;;12.23;2.78;;;;;;;;;;5071831;28;20708;-60
2022/07/22 00:30:50;;;;;;;12.30;3.13;;;;;;;;;;5051251;28;20543;-58
2022/07/22 00:33:16;;;;;;;7.60;3.00;;;;;;;;;;5072876;28;20179;-58
2022/07/22 00:35:42;;;;;;;10.25;2.72;;;;;;;;;;5053720;28;20175;-59
2022/07/22 00:38:09;;;;;;;12.25;2.90;;;;;;;;;;5069264;28;20192;-59
2022/07/22 00:40:35;;;;;;;11.98;2.80;;;;;;;;;;5073192;28;20174;-58
2022/07/22 00:43:01;;;;;;;10.10;2.95;;;;;;;;;;5073067;28;20316;-59
2022/07/22 00:45:28;;;;;;;7.93;2.47;;;;;;;;;;5053398;28;20211;-59
2022/07/22 00:47:54;;;;;;;13.55;2.63;;;;;;;;;;5047621;28;20644;-59
2022/07/22 00:50:20;;;;;;;10.50;2.35;;;;;;;;;;5054596;28;20551;-59
2022/07/22 00:52:47;;;;;;;11.50;2.30;;;;;;;;;;5071782;28;20222;-59
2022/07/22 00:55:14;;;;;;;10.00;2.42;;;;;;;;;;5072894;28;20186;-59
2022/07/22 00:57:40;;;;;;;8.07;2.00;;;;;;;;;;5072012;28;20233;-64
2022/07/22 01:00:07;;;;;;;7.75;2.20;;;;;;;;;;5054222;28;20248;-59
2022/07/22 01:02:34;;;;;;;7.65;1.70;;;;;;;;;;5070161;28;20182;-58
2022/07/22 01:05:00;;;;;;;18.00;2.42;;;;;;;;;;5072521;28;20210;-58
2022/07/22 01:07:26;;;;;;;9.73;2.50;;;;;;;;;;5053770;28;20174;-59
2022/07/22 01:09:52;;;;;;;7.28;1.73;;;;;;;;;;5072865;28;20273;-59
2022/07/22 01:12:18;;;;;;;5.32;1.80;;;;;;;;;;5040284;28;20707;-58
2022/07/22 01:14:45;;;;;;;7.05;1.73;;;;;;;;;;5034471;28;20187;-58
2022/07/22 01:17:11;;;;;;;4.30;1.88;;;;;;;;;;5037335;28;20193;-61
2022/07/22 01:19:37;;;;;;;7.18;1.77;;;;;;;;;;5049507;28;20277;-58
2022/07/22 01:22:05;;;;;;;9.30;1.63;;;;;;;;;;5042312;28;20179;-59
2022/07/22 01:24:31;;;;;;;9.48;2.10;;;;;;;;;;5067478;28;20622;-58
2022/07/22 01:26:57;;;;;;;6.95;1.75;;;;;;;;;;5060407;28;20191;-59
2022/07/22 01:29:23;;;;;;;5.68;1.60;;;;;;;;;;5033062;28;20183;-58
2022/07/22 01:31:49;;;;;;;5.05;1.70;;;;;;;;;;5040739;28;20644;-58
2022/07/22 01:34:16;;;;;;;4.72;1.40;;;;;;;;;;5045327;28;20236;-58
2022/07/22 01:36:42;;;;;;;6.97;1.95;;;;;;;;;;5042300;28;20202;-59
2022/07/22 01:39:08;;;;;;;5.47;1.70;;;;;;;;;;5053875;28;20195;-59
2022/07/22 01:41:34;;;;;;;7.35;1.67;;;;;;;;;;5045682;28;20186;-59
2022/07/22 01:44:00;;;;;;;9.00;1.77;;;;;;;;;;5034595;28;20295;-59
2022/07/22 01:46:27;;;;;;;7.10;1.90;;;;;;;;;;5050147;28;20187;-59
2022/07/22 01:48:53;;;;;;;5.20;1.70;;;;;;;;;;5070107;28;20190;-58
2022/07/22 01:51:20;;;;;;;6.88;1.80;;;;;;;;;;5058361;28;20183;-58
2022/07/22 01:53:46;;;;;;;5.88;1.75;;;;;;;;;;5038665;28;20716;-58
2022/07/22 01:56:12;;;;;;;5.65;2.00;;;;;;;;;;5024565;28;20183;-58
2022/07/22 01:58:47;;;;;;;6.68;1.80;;;;;;;;;;5020110;28;20186;-59
2022/07/22 02:01:14;;;;;;;6.10;2.08;;;;;;;;;;5014487;28;20179;-58
2022/07/22 02:03:40;;;;;;;6.70;2.03;;;;;;;;;;5050105;28;20304;-58
2022/07/22 02:06:08;;;;;;;7.05;2.40;;;;;;;;;;5032968;28;20187;-58
2022/07/22 02:08:35;;;;;;;3.97;1.70;;;;;;;;;;5017802;28;20233;-58
2022/07/22 02:11:09;;;;;;;8.70;2.00;;;;;;;;;;5054081;28;20198;-59
2022/07/22 02:13:45;;;;;;;7.93;1.90;;;;;;;;;;5019231;28;20191;-59
2022/07/22 02:16:11;;;;;;;6.15;1.60;;;;;;;;;;5021040;28;20180;-59
2022/07/22 02:18:39;;;;;;;5.13;1.40;;;;;;;;;;5017757;28;20278;-58
2022/07/22 02:21:05;;;;;;;8.20;1.83;;;;;;;;;;5037725;28;20183;-59
2022/07/22 02:23:31;;;;;;;8.10;2.20;;;;;;;;;;5037465;28;20649;-58
2022/07/22 02:25:58;;;;;;;9.07;2.05;;;;;;;;;;5037022;28;20683;-60
2022/07/22 02:28:24;;;;;;;7.07;2.28;;;;;;;;;;5045241;28;20188;-59
2022/07/22 02:30:50;;;;;;;6.32;2.13;;;;;;;;;;5052132;28;20184;-59
2022/07/22 02:33:17;;;;;;;5.22;1.80;;;;;;;;;;5036849;28;20591;-58
2022/07/22 02:35:43;;;;;;;8.23;1.80;;;;;;;;;;5036592;28;20190;-60
2022/07/22 02:38:10;;;;;;;4.88;1.70;;;;;;;;;;5013840;28;20687;-59
2022/07/22 02:40:38;;;;;;;7.82;1.67;;;;;;;;;;5033300;28;20189;-63
2022/07/22 02:43:06;;;;;;;3.85;1.80;;;;;;;;;;5037633;28;20187;-59
2022/07/22 02:45:33;;;;;;;5.95;1.52;;;;;;;;;;5037311;28;20612;-59
2022/07/22 02:47:59;;;;;;;4.38;1.83;;;;;;;;;;5026257;28;20187;-60
2022/07/22 02:50:26;;;;;;;6.25;1.80;;;;;;;;;;5017908;28;20195;-58
2022/07/22 02:52:53;;;;;;;6.63;2.25;;;;;;;;;;5029245;28;20223;-59
2022/07/22 02:55:23;;;;;;;5.57;1.75;;;;;;;;;;5037413;28;20221;-59
2022/07/22 02:57:51;;;;;;;5.07;1.60;;;;;;;;;;5055599;28;21045;-58
2022/07/22 03:00:17;;;;;;;5.90;1.90;;;;;;;;;;5042140;28;20191;-58
2022/07/22 03:02:45;;;;;;;4.45;1.48;;;;;;;;;;5073456;28;20214;-58
2022/07/22 03:05:12;;;;;;;3.47;1.70;;;;;;;;;;5041732;28;20702;-58
2022/07/22 03:07:44;;;;;;;3.20;1.73;;;;;;;;;;5040857;28;20203;-58
2022/07/22 03:10:12;;;;;;;6.82;1.67;;;;;;;;;;5050197;28;20257;-59
2022/07/22 03:12:38;;;;;;;4.47;1.63;;;;;;;;;;5035656;28;20278;-59
2022/07/22 03:15:05;;;;;;;5.75;1.50;;;;;;;;;;5037648;28;20214;-59
2022/07/22 03:17:35;;;;;;;4.30;1.45;;;;;;;;;;5051842;28;20194;-61
2022/07/22 03:20:05;;;;;;;4.68;1.40;;;;;;;;;;5043810;28;20179;-59
2022/07/22 03:22:31;;;;;;;5.00;1.73;;;;;;;;;;5041273;28;20187;-60
2022/07/22 03:24:57;;;;;;;4.65;1.40;;;;;;;;;;5041712;28;20218;-59
2022/07/22 03:27:24;;;;;;;10.75;2.10;;;;;;;;;;5055233;28;20265;-59
2022/07/22 03:29:50;;;;;;;5.95;1.70;;;;;;;;;;5053349;28;20183;-59
2022/07/22 03:32:18;;;;;;;3.53;1.42;;;;;;;;;;5033044;28;20295;-58
2022/07/22 03:34:47;;;;;;;4.28;1.30;;;;;;;;;;5040276;28;20194;-58
2022/07/22 03:37:13;;;;;;;5.10;1.35;;;;;;;;;;5043877;28;20219;-58
2022/07/22 03:39:41;;;;;;;5.63;1.70;;;;;;;;;;5057151;28;20182;-58
2022/07/22 03:42:08;;;;;;;6.53;3.88;;;;;;;;;;5053213;28;20189;-58
2022/07/22 03:44:42;;;;;;;6.93;2.40;;;;;;;;;;5042931;28;20224;-58
2022/07/22 03:47:09;;;;;;;3.05;1.70;;;;;;;;;;5057266;28;20274;-58
2022/07/22 03:49:35;;;;;;;7.55;1.67;;;;;;;;;;5057641;28;20735;-60
2022/07/22 03:52:05;;;;;;;3.67;1.60;;;;;;;;;;5040953;28;20226;-58
2022/07/22 03:54:31;;;;;;;9.38;1.50;;;;;;;;;;5058665;28;20194;-58
2022/07/22 03:56:57;;;;;;;5.82;1.80;;;;;;;;;;5050969;28;20295;-58
2022/07/22 03:59:23;;;;;;;7.22;2.10;;;;;;;;;;5059787;28;20234;-58
2022/07/22 04:01:49;;;;;;;7.70;1.90;;;;;;;;;;5029567;28;20195;-57
2022/07/22 04:04:15;;;;;;;7.28;2.33;;;;;;;;;;5040273;28;20271;-58
2022/07/22 04:06:45;;;;;;;3.95;1.83;;;;;;;;;;5057117;28;20551;-60
2022/07/22 04:09:21;;;;;;;5.55;1.98;;;;;;;;;;5058473;28;20209;-59
2022/07/22 04:11:50;;;;;;;7.30;1.80;;;;;;;;;;5056312;28;20183;-58
2022/07/22 04:14:19;;;;;;;9.63;2.17;;;;;;;;;;5039019;28;20182;-58
2022/07/22 04:16:45;;;;;;;9.45;2.67;;;;;;;;;;5061519;28;20194;-60
2022/07/22 04:19:12;;;;;;;6.38;2.05;;;;;;;;;;5058994;28;20265;-62
2022/07/22 04:21:51;;;;;;;11.75;2.28;;;;;;;;;;5047387;28;20199;-59
2022/07/22 04:24:19;;;;;;;8.23;2.53;;;;;;;;;;5053224;28;20591;-60
2022/07/22 04:26:46;;;;;;;9.30;2.30;;;;;;;;;;5061996;28;20676;-59
2022/07/22 04:29:13;;;;;;;7.82;2.22;;;;;;;;;;5047748;28;20181;-59
2022/07/22 04:31:40;;;;;;;5.97;2.00;;;;;;;;;;5038005;28;20178;-59
2022/07/22 04:34:18;;;;;;;8.82;2.22;;;;;;;;;;5058398;28;20236;-59
2022/07/22 04:36:44;;;;;;;7.63;2.28;;;;;;;;;;5052070;28;20269;-59
2022/07/22 04:39:11;;;;;;;11.38;2.33;;;;;;;;;;5035446;28;20205;-59
2022/07/22 04:41:43;;;;;;;10.98;1.95;;;;;;;;;;5044603;28;20639;-60
2022/07/22 04:44:11;;;;;;;9.15;1.90;;;;;;;;;;5038248;28;20226;-58
2022/07/22 04:46:37;;;;;;;6.25;1.77;;;;;;;;;;5073948;28;20186;-58
2022/07/22 04:49:04;;;;;;;8.85;1.95;;;;;;;;;;5057813;28;20186;-59
2022/07/22 04:51:30;;;;;;;5.28;1.85;;;;;;;;;;5043087;28;20174;-59
2022/07/22 04:54:02;;;;;;;8.00;1.92;;;;;;;;;;5055488;28;20178;-58
2022/07/22 04:56:28;;;;;;;11.00;2.38;;;;;;;;;;5047760;28;20179;-59
2022/07/22 04:58:55;;;;;;;1410.95;199.48;;;;;;;;;;5037459;28;20218;-58
2022/07/22 05:01:25;;;;;;;17.00;3.05;;;;;;;;;;5047155;28;20191;-58
2022/07/22 05:03:53;;;;;;;5.53;2.08;;;;;;;;;;5064806;28;20233;-59
2022/07/22 05:06:19;;;;;;;6.00;2.00;;;;;;;;;;5061038;28;20186;-62
2022/07/22 05:08:46;;;;;;;6.57;2.15;;;;;;;;;;5052832;28;20203;-58
2022/07/22 05:11:12;;;;;;;6.70;1.70;;;;;;;;;;5050908;28;20179;-60
2022/07/22 05:13:38;;;;;;;6.00;2.17;;;;;;;;;;5041540;28;20183;-62
2022/07/22 05:16:06;;;;;;;13.15;2.03;;;;;;;;;;5047188;28;20183;-58
2022/07/22 05:18:37;;;;;;;10.45;1.90;;;;;;;;;;5039869;28;20552;-58
2022/07/22 05:21:05;;;;;;;9.20;2.25;;;;;;;;;;5050780;28;20205;-58
2022/07/22 05:23:31;;;;;;;6.50;2.60;;;;;;;;;;5057590;28;20193;-59
2022/07/22 05:25:58;;;;;;;6.45;1.75;;;;;;;;;;5067667;28;20186;-58
2022/07/22 05:28:24;;;;;;;5.05;1.67;;;;;;;;;;5061389;28;20197;-58
2022/07/22 05:30:50;;;;;;;8.80;2.00;;;;;;;;;;5054096;28;20197;-58
2022/07/22 05:33:18;;;;;;;7.88;2.20;;;;;;;;;;5068129;28;20205;-58
2022/07/22 05:35:46;;;;;;;10.30;2.78;;;;;;;;;;5064216;28;20214;-59
2022/07/22 05:38:13;;;;;;;7.47;1.90;;;;;;;;;;5042631;28;20175;-58
2022/07/22 05:40:39;;;;;;;12.82;1.92;;;;;;;;;;5051910;28;20206;-59
2022/07/22 05:43:06;;;;;;;7.05;1.90;;;;;;;;;;5043147;28;20178;-61
2022/07/22 05:45:32;;;;;;;9.00;2.10;;;;;;;;;;5042504;28;20666;-60
2022/07/22 05:48:00;;;;;;;5.18;2.05;;;;;;;;;;5035812;28;20199;-59
2022/07/22 05:50:28;;;;;;;6.32;1.92;;;;;;;;;;5037512;28;20206;-59
2022/07/22 05:52:55;;;;;;;10.32;2.42;;;;;;;;;;5043389;28;20227;-61
2022/07/22 05:55:21;;;;;;;7.57;1.80;;;;;;;;;;5052760;28;20198;-58
2022/07/22 05:57:48;;;;;;;7.68;2.10;;;;;;;;;;5037748;28;20248;-59
2022/07/22 06:00:15;;;;;;;9.95;2.22;;;;;;;;;;5028146;28;20193;-60
2022/07/22 06:02:42;;;;;;;13.40;2.30;;;;;;;;;;5018482;28;20187;-59
2022/07/22 06:05:13;;;;;;;8.95;1.88;;;;;;;;;;5030012;28;20218;-61
2022/07/22 06:07:40;;;;;;;9.05;2.10;;;;;;;;;;5038740;28;20652;-59
2022/07/22 06:10:08;;;;;;;9.27;2.25;;;;;;;;;;5036860;28;20184;-59
2022/07/22 06:12:35;;;;;;;5.70;1.45;;;;;;;;;;5037654;28;20282;-59
2022/07/22 06:15:01;;;;;;;8.63;2.17;;;;;;;;;;5035933;28;20187;-59
2022/07/22 06:17:28;;;;;;;6.00;2.35;;;;;;;;;;5021153;28;20191;-59
2022/07/22 06:19:54;;;;;;;4.57;1.95;;;;;;;;;;5021359;28;20187;-59
2022/07/22 06:22:20;;;;;;;3.90;1.80;;;;;;;;;;5034573;28;20551;-59
2022/07/22 06:24:46;;;;;;;10.23;2.20;;;;;;;;;;5055360;28;20209;-59
2022/07/22 06:27:14;;;;;;;5.00;1.67;;;;;;;;;;5035660;28;20283;-59
2022/07/22 06:29:41;;;;;;;5.68;1.77;;;;;;;;;;5037603;28;20215;-59
2022/07/22 06:32:07;;;;;;;6.10;1.98;;;;;;;;;;5023196;28;20192;-59
2022/07/22 06:34:35;;;;;;;8.60;1.75;;;;;;;;;;5041266;28;20183;-59
2022/07/22 06:37:06;;;;;;;6.32;1.73;;;;;;;;;;5034225;28;20190;-60
2022/07/22 06:39:33;;;;;;;13.50;2.22;;;;;;;;;;5031715;28;20263;-58
2022/07/22 06:42:14;;;;;;;7.75;1.85;;;;;;;;;;5026470;28;20274;-59
2022/07/22 06:45:04;;;;;;;5.93;2.25;;;;;;;;;;5016897;28;20224;-60
2022/07/22 06:47:45;;;;;;;5.13;1.58;;;;;;;;;;5049828;28;20206;-59
2022/07/22 06:50:14;;;;;;;7.30;1.55;;;;;;;;;;5036674;28;20261;-59
2022/07/22 06:52:42;;;;;;;8.73;2.10;;;;;;;;;;5057559;28;20250;-58
2022/07/22 06:55:08;;;;;;;6.70;2.35;;;;;;;;;;5054994;28;20660;-58
2022/07/22 06:57:38;;;;;;;7.88;2.00;;;;;;;;;;5043928;28;20183;-59
2022/07/22 07:00:07;;;;;;;7.65;1.67;;;;;;;;;;5040312;28;20198;-60
2022/07/22 07:02:37;;;;;;;6.30;1.73;;;;;;;;;;5054427;28;20182;-59
2022/07/22 07:05:04;;;;;;;4.03;1.65;;;;;;;;;;5069515;28;20211;-60
2022/07/22 07:07:30;;;;;;;5.88;1.50;;;;;;;;;;5049415;28;20184;-59
2022/07/22 07:09:59;;;;;;;3.97;1.48;;;;;;;;;;5052874;28;20189;-59
2022/07/22 07:12:39;;;;;;;5.90;1.80;;;;;;;;;;5037350;28;20183;-59
2022/07/22 07:15:07;;;;;;;9.80;1.77;;;;;;;;;;5054292;28;20194;-61
2022/07/22 07:17:43;;;;;;;3.88;1.70;;;;;;;;;;5070337;28;20202;-59
2022/07/22 07:20:10;;;;;;;5.93;1.90;;;;;;;;;;5034871;28;20671;-59
2022/07/22 07:22:37;;;;;;;5.60;1.83;;;;;;;;;;5069421;28;20186;-63
2022/07/22 07:25:04;;;;;;;6.10;1.90;;;;;;;;;;5036828;28;20222;-60
2022/07/22 07:27:31;;;;;;;4.60;2.00;;;;;;;;;;5021141;28;20193;-59
2022/07/22 07:29:58;;;;;;;5.65;1.63;;;;;;;;;;5020893;28;20213;-59
2022/07/22 07:32:24;;;;;;;7.30;1.80;;;;;;;;;;5042691;28;20553;-59
2022/07/22 07:34:50;;;;;;;3.97;1.65;;;;;;;;;;5054937;28;20185;-59
2022/07/22 07:37:16;;;;;;;4.07;1.30;;;;;;;;;;5041021;28;20199;-58
2022/07/22 07:39:43;;;;;;;5.57;1.67;;;;;;;;;;5052628;28;20187;-59
2022/07/22 07:42:09;;;;;;;4.80;1.90;;;;;;;;;;5035816;28;20670;-59
2022/07/22 07:44:35;;;;;;;7.07;1.83;;;;;;;;;;5031116;28;20226;-63
2022/07/22 07:47:03;;;;;;;3.60;1.38;;;;;;;;;;5051555;28;20665;-58
2022/07/22 07:49:30;;;;;;;6.35;1.40;;;;;;;;;;5053388;28;20229;-65
2022/07/22 07:51:58;;;;;;;3.05;2.05;;;;;;;;;;5013102;28;1144197;-59
2022/07/22 07:54:24;;;;;;;8.20;2.40;;;;;;;;;;5055859;28;20549;-59
2022/07/22 07:57:02;;;;;;;5.03;1.67;;;;;;;;;;5044659;28;20206;-59
2022/07/22 07:59:28;;;;;;;6.88;1.67;;;;;;;;;;5068705;28;20194;-59
2022/07/22 08:01:56;;;;;;;5.47;1.58;;;;;;;;;;5044363;28;20191;-59
2022/07/22 08:04:23;;;;;;;5.25;1.80;;;;;;;;;;5020116;28;20687;-58
2022/07/22 08:06:49;;;;;;;3.22;1.38;;;;;;;;;;5063195;28;20270;-59
2022/07/22 08:09:16;;;;;;;4.25;1.40;;;;;;;;;;5043699;28;20190;-59
2022/07/22 08:11:43;;;;;;;3.92;1.63;;;;;;;;;;5019222;28;20179;-59
2022/07/22 08:14:39;;;;;;;5.85;1.60;;;;;;;;;;5035201;28;20183;-61
2022/07/22 08:17:25;;;;;;;4.28;1.58;;;;;;;;;;5067285;28;20194;-61
2022/07/22 08:19:52;;;;;;;3.08;1.65;;;;;;;;;;5044597;28;20645;-60
2022/07/22 08:22:18;;;;;;;3.38;1.40;;;;;;;;;;5040134;28;20186;-59
2022/07/22 08:24:47;;;;;;;6.10;1.30;;;;;;;;;;5030180;28;20286;-58
2022/07/22 08:27:15;;;;;;;3.83;1.67;;;;;;;;;;5046611;28;20194;-58
2022/07/22 08:29:42;;;;;;;7.85;2.60;;;;;;;;;;5052591;28;20179;-58
2022/07/22 08:32:09;;;;;;;4.10;1.63;;;;;;;;;;5053687;28;20199;-59
2022/07/22 08:34:36;;;;;;;4.45;1.85;;;;;;;;;;5040954;28;20306;-58
2022/07/22 08:37:04;;;;;;;6.90;1.48;;;;;;;;;;5060401;28;20207;-60
2022/07/22 08:39:30;;;;;;;7.10;1.80;;;;;;;;;;5034855;28;20175;-59
2022/07/22 08:41:57;;;;;;;5.53;1.70;;;;;;;;;;5035122;28;20210;-59
2022/07/22 08:44:24;;;;;;;4.38;1.60;;;;;;;;;;5039332;28;20210;-60
2022/07/22 08:46:50;;;;;;;4.03;1.38;;;;;;;;;;5061614;28;20189;-58
2022/07/22 08:49:20;;;;;;;3.72;1.40;;;;;;;;;;5072683;28;20189;-59
2022/07/22 08:51:54;;;;;;;5.57;1.67;;;;;;;;;;5036475;28;20230;-59
2022/07/22 08:54:23;;;;;;;6.00;1.60;;;;;;;;;;5049850;28;20211;-59
2022/07/22 08:56:50;;;;;;;9.50;1.60;;;;;;;;;;5043010;28;20577;-59
2022/07/22 08:59:18;;;;;;;11.40;6.38;;;;;;;;;;5034770;28;20260;-59
2022/07/22 09:02:02;;;;;;;5.85;1.83;;;;;;;;;;5061028;28;20191;-59
2022/07/22 09:04:31;;;;;;;3.53;1.40;;;;;;;;;;5038229;28;20216;-59
2022/07/22 09:06:58;;;;;;;4.30;1.63;;;;;;;;;;5033217;28;20602;-59
2022/07/22 09:09:32;;;;;;;8.00;1.75;;;;;;;;;;5052604;28;20664;-59
2022/07/22 09:12:15;;;;;;;3.03;1.38;;;;;;;;;;5048237;28;20210;-58
2022/07/22 09:14:53;;;;;;;6.07;1.70;;;;;;;;;;5023704;28;20193;-59
2022/07/22 09:17:36;;;;;;;4.25;1.67;;;;;;;;;;5054441;28;20179;-59
2022/07/22 09:20:21;;;;;;;5.38;1.55;;;;;;;;;;5037768;28;20218;-59
2022/07/22 09:23:12;;;;;;;5.22;1.95;;;;;;;;;;5020970;28;20190;-59
2022/07/22 09:25:41;;;;;;;8.23;1.77;;;;;;;;;;5050023;28;20211;-61
2022/07/22 09:28:27;;;;;;;2.65;1.67;;;;;;;;;;5037050;28;20245;-60
2022/07/22 09:31:26;;;;;;;4.80;1.80;;;;;;;;;;5056923;28;20197;-59
2022/07/22 09:33:55;;;;;;;6.10;2.00;;;;;;;;;;5020262;28;20341;-58
2022/07/22 09:36:27;;;;;;;6.65;2.33;;;;;;;;;;5019155;28;20552;-58
2022/07/22 09:38:55;;;;;;;4.43;1.98;;;;;;;;;;5066041;28;20249;-60
2022/07/22 09:41:21;;;;;;;5.13;2.05;;;;;;;;;;5040371;28;20283;-57
2022/07/22 09:43:50;;;;;;;3.28;1.70;;;;;;;;;;5062650;28;20176;-59
2022/07/22 09:46:16;;;;;;;6.00;1.85;;;;;;;;;;5038364;28;20663;-63
2022/07/22 09:48:55;;;;;;;6.38;2.10;;;;;;;;;;5043347;28;20596;-58
2022/07/22 09:51:52;;;;;;;9.57;1.80;;;;;;;;;;5046397;28;20650;-59
2022/07/22 09:54:51;;;;;;;9.77;2.17;;;;;;;;;;5051832;28;20273;-59
2022/07/22 09:57:19;;;;;;;10.30;2.00;;;;;;;;;;5031223;28;20204;-59
2022/07/22 09:59:46;;;;;;;6.78;1.70;;;;;;;;;;5041242;28;20366;-59
2022/07/22 10:02:25;;;;;;;5.05;2.10;;;;;;;;;;5061766;28;20185;-58
2022/07/22 10:04:52;;;;;;;6.63;2.20;;;;;;;;;;5052889;28;20304;-58
2022/07/22 10:07:19;;;;;;;5.40;1.90;;;;;;;;;;5053601;28;20183;-58
2022/07/22 10:09:46;;;;;;;7.85;1.80;;;;;;;;;;5055290;28;20607;-58
2022/07/22 10:12:14;;;;;;;7.75;1.77;;;;;;;;;;5055838;28;20214;-58
2022/07/22 10:14:41;;;;;;;6.38;1.75;;;;;;;;;;5040704;28;20656;-58
2022/07/22 10:17:08;;;;;;;5.55;2.33;;;;;;;;;;5031357;28;20214;-59
2022/07/22 10:19:35;;;;;;;11.40;3.70;;;;;;;;;;5068533;28;20194;-59
2022/07/22 10:22:01;;;;;;;10.35;2.60;;;;;;;;;;5056570;28;20199;-59
2022/07/22 10:24:27;;;;;;;5.97;2.00;;;;;;;;;;5057263;28;20308;-59
2022/07/22 10:27:01;;;;;;;3.35;1.88;;;;;;;;;;5038648;28;20222;-60
2022/07/22 10:29:28;;;;;;;6.35;1.98;;;;;;;;;;5050318;28;20198;-59
2022/07/22 10:32:21;;;;;;;9.65;2.17;;;;;;;;;;5068215;28;20698;-59
2022/07/22 10:35:01;;;;;;;4.40;1.60;;;;;;;;;;5033793;28;20214;-59
2022/07/22 10:37:38;;;;;;;6.68;3.13;;;;;;;;;;5054875;28;20186;-59
2022/07/22 10:40:25;;;;;;;6.57;1.42;;;;;;;;;;5063793;28;20190;-59
2022/07/22 10:45:28;;;;;;;6.72;1.70;;;;;;;;;;5071934;28;20210;-59
2022/07/22 10:47:55;;;;;;;4.57;1.80;;;;;;;;;;5049555;28;20193;-59
2022/07/22 10:50:41;;;;;;;5.63;1.58;;;;;;;;;;5074253;28;20185;-59
2022/07/22 10:53:09;;;;;;;6.70;1.75;;;;;;;;;;5072615;28;20308;-60
2022/07/22 10:55:35;;;;;;;4.43;1.80;;;;;;;;;;5074491;28;20175;-59
2022/07/22 10:58:21;;;;;;;5.65;1.88;;;;;;;;;;5056623;28;20182;-60
2022/07/22 11:00:48;;;;;;;4.32;1.52;;;;;;;;;;5051530;28;20190;-64
2022/07/22 11:03:24;;;;;;;3.20;1.55;;;;;;;;;;5038901;28;20182;-59
2022/07/22 11:05:51;;;;;;;7.82;2.25;;;;;;;;;;5065839;28;20237;-60
2022/07/22 11:08:18;;;;;;;10.85;1.77;;;;;;;;;;5074205;28;20198;-59
2022/07/22 11:10:48;;;;;;;6.18;1.83;;;;;;;;;;5053242;28;20210;-60
2022/07/22 11:13:31;;;;;;;6.18;1.80;;;;;;;;;;5056150;28;20702;-64
2022/07/22 11:16:13;;;;;;;3.08;1.40;;;;;;;;;;5063254;28;20542;-59
2022/07/22 11:19:05;;;;;;;7.10;2.00;;;;;;;;;;5043405;28;20207;-59
2022/07/22 11:21:32;;;;;;;2.75;1.40;;;;;;;;;;5048490;28;20190;-59
2022/07/22 11:24:01;;;;;;;6.50;1.40;;;;;;;;;;5054892;28;20596;-59
2022/07/22 11:26:40;;;;;;;4.57;1.50;;;;;;;;;;5054535;28;20178;-59
2022/07/22 11:29:06;;;;;;;4.72;1.60;;;;;;;;;;5073891;28;20706;-59
2022/07/22 11:31:32;;;;;;;2.85;1.50;;;;;;;;;;5071736;28;20308;-59
2022/07/22 11:34:06;;;;;;;5.35;1.77;;;;;;;;;;5036745;28;20274;-58
2022/07/22 11:36:33;;;;;;;7.45;1.55;;;;;;;;;;5067336;28;20186;-60
2022/07/22 11:38:59;;;;;;;6.45;2.00;;;;;;;;;;5054409;28;20175;-60
2022/07/22 11:41:28;;;;;;;4.85;1.70;;;;;;;;;;5065921;28;20183;-59
2022/07/22 11:43:54;;;;;;;4.20;1.63;;;;;;;;;;5073737;28;20171;-57
2022/07/22 11:46:23;;;;;;;7.40;1.70;;;;;;;;;;5073009;28;20182;-57
2022/07/22 11:48:49;;;;;;;5.07;1.90;;;;;;;;;;5066938;28;20191;-62
2022/07/22 11:51:15;;;;;;;5.35;2.45;;;;;;;;;;5049069;28;20206;-59
2022/07/22 11:53:42;;;;;;;5.15;1.95;;;;;;;;;;5071652;28;20691;-59
2022/07/22 11:56:10;;;;;;;5.18;1.88;;;;;;;;;;5069336;28;20185;-59
2022/07/22 11:58:55;;;;;;;3.33;1.75;;;;;;;;;;5048221;28;20187;-59
2022/07/22 12:01:23;;;;;;;3.47;1.70;;;;;;;;;;5056543;28;20190;-58
2022/07/22 12:03:50;;;;;;;6.35;2.08;;;;;;;;;;5053428;28;20236;-59
2022/07/22 12:06:17;;;;;;;3.35;1.70;;;;;;;;;;5039621;28;20516;-59
2022/07/22 12:08:47;;;;;;;4.57;1.83;;;;;;;;;;5068441;28;20631;-59
2022/07/22 12:11:15;;;;;;;7.55;2.20;;;;;;;;;;5072009;28;20185;-57
2022/07/22 12:13:43;;;;;;;6.28;2.70;;;;;;;;;;5068832;28;20198;-59
2022/07/22 12:16:21;;;;;;;5.38;2.25;;;;;;;;;;5046904;28;20468;-59
2022/07/22 12:18:51;;;;;;;6.85;2.33;;;;;;;;;;5048278;28;20185;-59
2022/07/22 12:21:18;;;;;;;6.03;2.08;;;;;;;;;;5072987;28;20183;-59
2022/07/22 12:23:51;;;;;;;4.20;1.90;;;;;;;;;;5054594;28;20777;-59
2022/07/22 12:26:17;;;;;;;6.57;1.63;;;;;;;;;;5052719;28;20187;-59
2022/07/22 12:28:43;;;;;;;5.88;1.83;;;;;;;;;;5069659;28;20179;-58
2022/07/22 12:31:10;;;;;;;4.90;1.80;;;;;;;;;;5061816;28;20183;-59
2022/07/22 12:33:36;;;;;;;6.15;1.70;;;;;;;;;;5040467;28;20214;-59
2022/07/22 12:36:06;;;;;;;7.68;2.00;;;;;;;;;;5062459;28;20548;-59
2022/07/22 12:38:33;;;;;;;6.28;2.10;;;;;;;;;;5072832;28;20186;-59
2022/07/22 12:41:18;;;;;;;6.25;1.67;;;;;;;;;;5070724;28;20186;-58
2022/07/22 12:43:45;;;;;;;7.72;2.28;;;;;;;;;;5053712;28;20186;-58
2022/07/22 12:46:11;;;;;;;5.63;1.80;;;;;;;;;;5031795;28;20186;-58
2022/07/22 12:48:37;;;;;;;7.60;1.80;;;;;;;;;;5063048;28;20183;-59
2022/07/22 12:51:03;;;;;;;4.88;1.80;;;;;;;;;;5061344;28;20186;-58
2022/07/22 12:53:32;;;;;;;7.65;1.70;;;;;;;;;;5068768;28;20252;-58
2022/07/22 12:56:00;;;;;;;6.57;2.13;;;;;;;;;;5068394;28;20186;-60
2022/07/22 12:58:28;;;;;;;6.57;1.58;;;;;;;;;;5072191;28;20258;-58
2022/07/22 13:00:55;;;;;;;6.15;1.98;;;;;;;;;;5035937;28;20206;-58
2022/07/22 13:03:23;;;;;;;4.50;2.33;;;;;;;;;;5052974;28;20189;-58
2022/07/22 13:05:50;;;;;;;6.97;2.58;;;;;;;;;;5054035;28;20307;-58
2022/07/22 13:08:17;;;;;;;8.32;1.95;;;;;;;;;;5069010;28;20307;-58
2022/07/22 13:10:43;;;;;;;5.43;1.88;;;;;;;;;;5024175;28;20189;-58
2022/07/22 13:13:10;;;;;;;6.22;1.88;;;;;;;;;;5064891;28;20189;-59
2022/07/22 13:15:37;;;;;;;8.85;1.90;;;;;;;;;;5055186;28;20195;-59
2022/07/22 13:18:03;;;;;;;5.80;1.67;;;;;;;;;;5067759;28;20228;-58
2022/07/22 13:20:30;;;;;;;5.57;1.70;;;;;;;;;;5070625;28;20187;-58
2022/07/22 13:22:56;;;;;;;5.65;2.55;;;;;;;;;;5072040;28;20179;-59
2022/07/22 13:25:26;;;;;;;5.90;2.10;;;;;;;;;;5066565;28;20202;-58
2022/07/22 13:27:53;;;;;;;7.25;1.70;;;;;;;;;;5070792;28;20182;-58
2022/07/22 13:30:19;;;;;;;3.28;1.63;;;;;;;;;;5067991;28;20207;-58
2022/07/22 13:32:45;;;;;;;6.82;1.80;;;;;;;;;;5069634;28;20624;-58
2022/07/22 13:35:11;;;;;;;4.68;1.95;;;;;;;;;;5050015;28;20655;-60
2022/07/22 13:37:37;;;;;;;6.15;1.83;;;;;;;;;;5059184;28;20722;-57
2022/07/22 13:40:04;;;;;;;6.22;2.00;;;;;;;;;;5071385;28;20723;-63
2022/07/22 13:42:30;;;;;;;6.40;1.80;;;;;;;;;;5070184;28;20652;-62
2022/07/22 13:44:57;;;;;;;4.18;1.90;;;;;;;;;;5075352;28;20309;-59
2022/07/22 13:47:23;;;;;;;7.10;1.88;;;;;;;;;;5052240;28;20178;-58
2022/07/22 13:49:49;;;;;;;2.60;1.80;;;;;;;;;;5061344;28;20183;-60
2022/07/22 13:52:18;;;;;;;3.42;1.60;;;;;;;;;;5075472;28;20245;-58
2022/07/22 13:54:45;;;;;;;3.70;1.35;;;;;;;;;;5071957;28;20651;-61
2022/07/22 13:57:11;;;;;;;2.25;1.40;;;;;;;;;;5073001;28;20266;-59
2022/07/22 13:59:38;;;;;;;5.28;1.63;;;;;;;;;;5069783;28;20268;-57
2022/07/22 14:02:04;;;;;;;2.47;1.50;;;;;;;;;;5074470;28;20214;-63
2022/07/22 14:04:31;;;;;;;4.00;1.52;;;;;;;;;;5055232;28;20202;-61
2022/07/22 14:06:57;;;;;;;4.78;1.50;;;;;;;;;;5068652;28;20175;-59
2022/07/22 14:09:23;;;;;;;2.13;1.20;;;;;;;;;;5070151;28;20190;-58
2022/07/22 14:11:49;;;;;;;3.40;1.55;;;;;;;;;;5072387;28;20190;-59
2022/07/22 14:14:16;;;;;;;2.50;1.35;;;;;;;;;;5070779;28;20559;-61
2022/07/22 14:16:42;;;;;;;8.80;1.85;;;;;;;;;;5045321;28;20258;-48
2022/07/22 14:19:10;;;;;;;5.20;1.60;;;;;;;;;;5070679;28;20648;-48
2022/07/22 14:21:37;;;;;;;5.50;2.20;;;;;;;;;;5040237;28;20195;-44
2022/07/22 14:24:05;;;;;;;5.97;1.55;;;;;;;;;;5070090;28;20253;-48
2022/07/22 14:26:31;;;;;;;3.05;1.48;;;;;;;;;;5046553;28;20190;-47
2022/07/22 14:28:58;;;;;;;3.42;1.20;;;;;;;;;;5072471;28;20270;-46
2022/07/22 14:31:24;;;;;;;2.80;1.42;;;;;;;;;;5056117;28;20218;-48
2022/07/22 14:33:50;;;;;;;17.15;11.95;;;;;;;;;;5055798;28;20624;-48
2022/07/22 14:36:16;;;;;;;3.25;2.00;;;;;;;;;;5069585;28;20187;-48
2022/07/22 14:38:43;;;;;;;3.22;1.50;;;;;;;;;;5055253;28;20277;-47
2022/07/22 14:41:09;;;;;;;2.45;1.48;;;;;;;;;;5046661;28;20176;-47
2022/07/22 14:43:36;;;;;;;4.18;1.50;;;;;;;;;;5055873;28;20273;-48
2022/07/22 14:46:04;;;;;;;3.97;1.58;;;;;;;;;;5064190;28;20301;-48
2022/07/22 14:48:30;;;;;;;2.60;1.27;;;;;;;;;;5055175;28;20202;-55
2022/07/22 14:50:56;;;;;;;5.95;1.55;;;;;;;;;;5064995;28;20179;-48
2022/07/22 14:57:41;;;;;;;2.15;1.10;;;;;;;;;;5068507;28;20552;-22